createdAt,value
2023-03-01T00:01:42.336Z,100477.41
2023-03-01T00:04:09.571Z,100482.22
2023-03-01T00:06:36.906Z,100484.34
2023-03-01T00:09:05.132Z,100475.81
2023-03-01T00:11:34.519Z,100477.63
2023-03-01T00:14:05.778Z,100475.31
2023-03-01T00:16:43.234Z,100468.34
2023-03-01T00:19:22.896Z,100459.13
2023-03-01T00:21:50.150Z,100465.84
2023-03-01T00:24:17.816Z,100472.94
2023-03-01T00:26:45.157Z,100466.13
2023-03-01T00:29:12.410Z,100460.03
2023-03-01T00:31:39.638Z,100459.75
2023-03-01T00:34:07.282Z,100460.69
2023-03-01T00:36:38.010Z,100457.03
2023-03-01T00:39:14.427Z,100457.69
2023-03-01T00:41:43.224Z,100460.94
2023-03-01T00:44:10.784Z,100452.78
2023-03-01T00:46:38.146Z,100461.84
2023-03-01T00:49:05.590Z,100445.31
2023-03-01T00:51:33.077Z,100444.81
2023-03-01T00:54:03.340Z,100433.28
2023-03-01T00:56:32.250Z,100429.81
2023-03-01T00:58:59.725Z,100431.75
2023-03-01T01:01:31.441Z,100425.34
2023-03-01T01:04:05.094Z,100425.19
2023-03-01T01:06:40.640Z,100423.09
2023-03-01T01:09:09.280Z,100421.94
2023-03-01T01:11:39.865Z,100406.56
2023-03-01T01:14:07.116Z,100405.00
2023-03-01T01:16:34.510Z,100407.84
2023-03-01T01:19:02.667Z,100401.59
2023-03-01T01:21:30.765Z,100399.94
2023-03-01T01:23:58.472Z,100386.91
2023-03-01T01:26:33.714Z,100384.19
2023-03-01T01:29:04.537Z,100377.13
2023-03-01T01:31:33.736Z,100375.91
2023-03-01T01:34:05.932Z,100371.53
2023-03-01T01:36:35.152Z,100369.59
2023-03-01T01:39:03.075Z,100377.13
2023-03-01T01:41:31.444Z,100362.44
2023-03-01T01:44:27.555Z,100356.31
2023-03-01T01:47:06.993Z,100352.06
2023-03-01T01:49:56.221Z,100357.00
2023-03-01T01:52:35.319Z,100355.63
2023-03-01T01:55:13.049Z,100345.94
2023-03-01T01:57:46.994Z,100350.47
2023-03-01T02:00:32.593Z,100340.13
2023-03-01T02:03:19.052Z,100339.06
2023-03-01T02:06:07.778Z,100341.22
2023-03-01T02:08:39.393Z,100334.94
2023-03-01T02:11:07.499Z,100340.50
2023-03-01T02:13:35.489Z,100332.97
2023-03-01T02:16:10.649Z,100330.75
2023-03-01T02:18:41.268Z,100324.38
2023-03-01T02:22:00.800Z,100342.72
2023-03-01T02:25:24.893Z,100325.34
2023-03-01T02:28:16.395Z,100323.53
2023-03-01T02:31:09.011Z,100318.47
2023-03-01T02:33:40.376Z,100321.09
2023-03-01T02:36:24.692Z,100319.50
2023-03-01T02:38:57.596Z,100313.81
2023-03-01T02:41:29.630Z,100316.97
2023-03-01T02:43:57.044Z,100315.59
2023-03-01T02:46:27.208Z,100309.97
2023-03-01T02:48:59.095Z,100309.28
2023-03-01T02:52:19.516Z,100304.06
2023-03-01T02:55:06.896Z,100294.03
2023-03-01T02:57:40.101Z,100299.41
2023-03-01T03:00:26.022Z,100297.78
2023-03-01T03:02:55.117Z,100285.66
2023-03-01T03:05:30.335Z,100291.41
2023-03-01T03:08:02.483Z,100278.88
2023-03-01T03:10:40.471Z,100290.25
2023-03-01T03:13:14.761Z,100287.19
2023-03-01T03:15:44.774Z,100276.78
2023-03-01T03:18:17.110Z,100288.19
2023-03-01T03:20:45.488Z,100275.88
2023-03-01T03:23:14.152Z,100283.16
2023-03-01T03:25:41.408Z,100281.81
2023-03-01T03:28:12.060Z,100281.81
2023-03-01T03:30:42.014Z,100287.84
2023-03-01T03:33:13.655Z,100269.72
2023-03-01T03:35:48.611Z,100277.94
2023-03-01T03:38:20.615Z,100279.44
2023-03-01T03:41:04.164Z,100278.53
2023-03-01T03:43:35.128Z,100268.66
2023-03-01T03:46:06.856Z,100269.44
2023-03-01T03:48:41.452Z,100268.84
2023-03-01T03:51:13.912Z,100270.50
2023-03-01T03:53:42.011Z,100270.56
2023-03-01T03:56:10.129Z,100276.16
2023-03-01T03:58:37.801Z,100265.78
2023-03-01T04:01:05.636Z,100264.69
2023-03-01T04:03:35.954Z,100268.34
2023-03-01T04:06:05.115Z,100265.13
2023-03-01T04:08:32.854Z,100266.34
2023-03-01T04:11:22.645Z,100266.19
2023-03-01T04:13:50.239Z,100267.84
2023-03-01T04:16:18.624Z,100262.25
2023-03-01T04:18:46.289Z,100262.91
2023-03-01T04:21:13.749Z,100256.44
2023-03-01T04:23:42.007Z,100256.00
2023-03-01T04:26:09.691Z,100249.34
2023-03-01T04:28:46.330Z,100255.09
2023-03-01T04:31:22.328Z,100259.59
2023-03-01T04:33:56.629Z,100254.88
2023-03-01T04:36:29.371Z,100253.28
2023-03-01T04:38:58.075Z,100251.78
2023-03-01T04:41:26.985Z,100256.34
2023-03-01T04:43:54.423Z,100251.81
2023-03-01T04:46:23.055Z,100252.69
2023-03-01T04:48:50.377Z,100253.19
2023-03-01T04:51:17.751Z,100261.81
2023-03-01T04:53:45.474Z,100253.06
2023-03-01T04:56:18.729Z,100257.59
2023-03-01T04:58:47.148Z,100264.22
2023-03-01T05:01:19.742Z,100257.88
2023-03-01T05:03:51.927Z,100264.09
2023-03-01T05:06:21.447Z,100265.47
2023-03-01T05:08:48.748Z,100258.19
2023-03-01T05:11:16.056Z,100251.56
2023-03-01T05:13:43.408Z,100258.06
2023-03-01T05:16:17.521Z,100264.25
2023-03-01T05:18:44.802Z,100260.31
2023-03-01T05:21:16.930Z,100256.06
2023-03-01T05:23:45.202Z,100258.53
2023-03-01T05:26:27.416Z,100257.94
2023-03-01T05:28:59.841Z,100260.06
2023-03-01T05:31:27.934Z,100259.91
2023-03-01T05:33:55.306Z,100265.66
2023-03-01T05:36:22.576Z,100263.69
2023-03-01T05:38:49.816Z,100255.66
2023-03-01T05:41:17.921Z,100258.53
2023-03-01T05:43:46.035Z,100258.06
2023-03-01T05:46:14.358Z,100266.41
2023-03-01T05:48:42.053Z,100258.41
2023-03-01T05:51:09.335Z,100255.97
2023-03-01T05:53:36.534Z,100261.31
2023-03-01T05:56:07.128Z,100260.06
2023-03-01T05:58:34.360Z,100264.31
2023-03-01T06:01:01.575Z,100272.16
2023-03-01T06:03:28.722Z,100268.53
2023-03-01T06:05:59.280Z,100269.25
2023-03-01T06:08:28.114Z,100257.00
2023-03-01T06:10:55.650Z,100268.38
2023-03-01T06:13:24.498Z,100271.84
2023-03-01T06:15:53.049Z,100269.56
2023-03-01T06:18:20.429Z,100280.03
2023-03-01T06:20:55.156Z,100277.44
2023-03-01T06:23:23.994Z,100281.19
2023-03-01T06:25:51.456Z,100281.47
2023-03-01T06:28:18.777Z,100271.78
2023-03-01T06:30:46.102Z,100279.94
2023-03-01T06:33:13.322Z,100272.63
2023-03-01T06:35:40.601Z,100275.03
2023-03-01T06:38:07.769Z,100273.34
2023-03-01T06:40:36.225Z,100273.44
2023-03-01T06:43:03.675Z,100272.50
2023-03-01T06:45:35.010Z,100270.38
2023-03-01T06:48:05.662Z,100266.13
2023-03-01T06:50:36.592Z,100277.81
2023-03-01T06:53:04.269Z,100280.25
2023-03-01T06:55:32.544Z,100277.66
2023-03-01T06:58:03.661Z,100275.78
2023-03-01T07:00:31.621Z,100279.09
2023-03-01T07:03:03.486Z,100284.13
2023-03-01T07:05:31.774Z,100278.78
2023-03-01T07:07:58.969Z,100276.59
2023-03-01T07:10:26.222Z,100278.63
2023-03-01T07:12:57.810Z,100282.50
2023-03-01T07:15:27.626Z,100290.00
2023-03-01T07:17:55.171Z,100288.22
2023-03-01T07:20:26.441Z,100284.34
2023-03-01T07:22:56.247Z,100283.91
2023-03-01T07:25:23.576Z,100291.50
2023-03-01T07:27:55.362Z,100287.22
2023-03-01T07:30:23.631Z,100290.94
2023-03-01T07:32:51.082Z,100284.44
2023-03-01T07:35:18.596Z,100287.09
2023-03-01T07:37:45.786Z,100289.81
2023-03-01T07:40:14.055Z,100288.28
2023-03-01T07:42:41.355Z,100283.00
2023-03-01T07:45:09.356Z,100279.50
2023-03-01T07:47:36.954Z,100270.91
2023-03-01T07:50:05.515Z,100274.53
2023-03-01T07:52:32.992Z,100268.91
2023-03-01T07:55:00.182Z,100269.47
2023-03-01T07:57:28.290Z,100266.09
2023-03-01T07:59:55.441Z,100261.59
2023-03-01T08:02:22.608Z,100250.22
2023-03-01T08:04:49.884Z,100243.22
2023-03-01T08:07:17.178Z,100250.88
2023-03-01T08:09:44.416Z,100248.28
2023-03-01T08:12:11.603Z,100254.09
2023-03-01T08:14:38.850Z,100250.75
2023-03-01T08:17:06.095Z,100252.19
2023-03-01T08:19:34.133Z,100253.25
2023-03-01T08:22:03.505Z,100241.50
2023-03-01T08:24:30.967Z,100239.72
2023-03-01T08:26:58.257Z,100250.63
2023-03-01T08:29:25.730Z,100245.97
2023-03-01T08:31:53.138Z,100247.78
2023-03-01T08:34:20.434Z,100240.13
2023-03-01T08:36:48.342Z,100240.63
2023-03-01T08:39:20.105Z,100228.88
2023-03-01T08:41:48.389Z,100242.56
2023-03-01T08:44:20.516Z,100232.16
2023-03-01T08:46:51.533Z,100231.06
2023-03-01T08:49:21.082Z,100223.41
2023-03-01T08:51:49.150Z,100218.38
2023-03-01T08:54:22.143Z,100227.34
2023-03-01T08:56:49.971Z,100221.34
2023-03-01T08:59:19.015Z,100219.50
2023-03-01T09:01:46.396Z,100214.72
2023-03-01T09:04:15.874Z,100215.19
2023-03-01T09:06:44.588Z,100203.16
2023-03-01T09:09:17.911Z,100206.59
2023-03-01T09:11:47.410Z,100199.19
2023-03-01T09:14:15.651Z,100191.72
2023-03-01T09:16:43.508Z,100180.22
2023-03-01T09:19:10.859Z,100169.38
2023-03-01T09:21:40.972Z,100165.31
2023-03-01T09:24:15.497Z,100159.22
2023-03-01T09:26:43.860Z,100170.69
2023-03-01T09:29:11.386Z,100156.69
2023-03-01T09:31:39.114Z,100160.94
2023-03-01T09:34:07.266Z,100157.06
2023-03-01T09:36:34.965Z,100147.34
2023-03-01T09:39:05.915Z,100146.88
2023-03-01T09:42:05.338Z,100141.13
2023-03-01T09:44:58.557Z,100135.19
2023-03-01T09:47:37.090Z,100134.06
2023-03-01T09:50:22.350Z,100127.25
2023-03-01T09:53:07.708Z,100126.72
2023-03-01T09:56:04.299Z,100122.56
2023-03-01T09:59:14.532Z,100117.28
2023-03-01T10:02:29.122Z,100102.63
2023-03-01T10:05:30.475Z,100092.09
2023-03-01T10:08:30.395Z,100088.66
2023-03-01T10:10:59.377Z,100079.16
2023-03-01T10:13:46.480Z,100082.19
2023-03-01T10:16:22.495Z,100078.63
2023-03-01T10:19:00.708Z,100071.19
2023-03-01T10:21:32.465Z,100067.72
2023-03-01T10:24:20.902Z,100057.13
2023-03-01T10:27:09.406Z,100053.56
2023-03-01T10:29:55.029Z,100055.31
2023-03-01T10:32:25.067Z,100047.84
2023-03-01T10:34:52.642Z,100047.72
2023-03-01T10:37:22.872Z,100044.94
2023-03-01T10:40:11.402Z,100048.63
2023-03-01T10:42:50.532Z,100040.13
2023-03-01T10:45:40.577Z,100028.91
2023-03-01T10:48:24.500Z,100025.03
2023-03-01T10:51:07.969Z,100026.03
2023-03-01T10:53:53.348Z,100027.75
2023-03-01T10:56:20.855Z,100014.91
2023-03-01T10:59:04.099Z,100017.38
2023-03-01T11:01:36.194Z,100009.28
2023-03-01T11:04:06.565Z,100004.06
2023-03-01T11:06:44.826Z,99996.72
2023-03-01T11:09:24.629Z,99990.97
2023-03-01T11:11:58.610Z,99986.34
2023-03-01T11:14:41.754Z,99971.22
2023-03-01T11:17:44.568Z,99968.94
2023-03-01T11:20:29.097Z,99957.84
2023-03-01T11:23:03.638Z,99961.38
2023-03-01T11:25:39.121Z,99953.47
2023-03-01T11:28:16.049Z,99952.81
2023-03-01T11:31:15.021Z,99948.94
2023-03-01T11:34:10.271Z,99946.50
2023-03-01T11:36:56.023Z,99936.78
2023-03-01T11:39:33.388Z,99940.75
2023-03-01T11:42:29.473Z,99944.44
2023-03-01T11:45:04.211Z,99930.53
2023-03-01T11:48:23.196Z,99932.03
2023-03-01T11:50:50.913Z,99932.03
2023-03-01T11:54:00.756Z,99920.25
2023-03-01T11:56:40.400Z,99916.63
2023-03-01T11:59:52.057Z,99927.97
2023-03-01T12:02:54.918Z,99911.13
2023-03-01T12:05:43.899Z,99909.88
2023-03-01T12:08:32.294Z,99909.03
2023-03-01T12:11:45.146Z,99907.59
2023-03-01T12:14:37.289Z,99892.84
2023-03-01T12:17:48.122Z,99895.50
2023-03-01T12:21:00.769Z,99894.38
2023-03-01T12:23:50.126Z,99894.38
2023-03-01T12:26:39.757Z,99889.78
2023-03-01T12:29:43.545Z,99871.88
2023-03-01T12:32:30.984Z,99872.13
2023-03-01T12:35:59.123Z,99866.16
2023-03-01T12:38:57.240Z,99865.13
2023-03-01T12:42:03.056Z,99875.81
2023-03-01T12:44:51.161Z,99869.16
2023-03-01T12:47:43.991Z,99871.31
2023-03-01T12:50:25.605Z,99880.16
2023-03-01T12:52:58.717Z,99877.56
2023-03-01T12:55:39.108Z,99887.75
2023-03-01T12:58:47.356Z,99865.72
2023-03-01T13:01:49.351Z,99867.78
2023-03-01T13:05:10.013Z,99885.94
2023-03-01T13:07:44.451Z,99890.06
2023-03-01T13:10:44.797Z,99881.38
2023-03-01T13:13:26.458Z,99890.03
2023-03-01T13:15:55.238Z,99887.91
2023-03-01T13:18:26.279Z,99889.53
2023-03-01T13:21:01.029Z,99897.00
2023-03-01T13:23:32.973Z,99893.13
2023-03-01T13:25:59.953Z,99899.25
2023-03-01T13:28:43.519Z,99899.06
2023-03-01T13:31:16.629Z,99900.47
2023-03-01T13:34:09.120Z,99906.22
2023-03-01T13:36:37.070Z,99907.41
2023-03-01T13:39:39.807Z,99896.19
2023-03-01T13:42:42.519Z,99903.34
2023-03-01T13:45:42.401Z,99899.78
2023-03-01T13:48:23.861Z,99910.13
2023-03-01T13:51:01.471Z,99910.34
2023-03-01T13:53:36.103Z,99903.72
2023-03-01T13:56:20.579Z,99906.22
2023-03-01T13:59:17.458Z,99903.00
2023-03-01T14:01:45.103Z,99911.84
2023-03-01T14:04:36.822Z,99916.22
2023-03-01T14:07:30.457Z,99915.81
2023-03-01T14:10:05.413Z,99920.34
2023-03-01T14:12:53.843Z,99926.19
2023-03-01T14:15:31.347Z,99920.25
2023-03-01T14:18:30.025Z,99921.75
2023-03-01T14:20:57.227Z,99929.03
2023-03-01T14:23:25.222Z,99917.78
2023-03-01T14:25:58.910Z,99922.50
2023-03-01T14:28:38.400Z,99921.19
2023-03-01T14:31:53.703Z,99917.50
2023-03-01T14:34:25.054Z,99913.59
2023-03-01T14:36:52.559Z,99907.47
2023-03-01T14:39:30.076Z,99903.72
2023-03-01T14:42:00.551Z,99901.69
2023-03-01T14:44:30.836Z,99915.72
2023-03-01T14:46:58.714Z,99900.63
2023-03-01T14:49:31.865Z,99904.38
2023-03-01T14:52:06.341Z,99903.56
2023-03-01T14:54:45.474Z,99906.53
2023-03-01T14:57:25.141Z,99910.13
2023-03-01T15:00:01.407Z,99913.97
2023-03-01T15:02:31.593Z,99912.19
2023-03-01T15:05:08.158Z,99912.84
2023-03-01T15:07:43.062Z,99908.06
2023-03-01T15:10:26.138Z,99912.94
2023-03-01T15:12:54.173Z,99917.28
2023-03-01T15:15:36.089Z,99912.47
2023-03-01T15:18:20.164Z,99907.81
2023-03-01T15:20:51.110Z,99905.09
2023-03-01T15:23:27.859Z,99911.63
2023-03-01T15:26:01.396Z,99908.81
2023-03-01T15:28:34.771Z,99915.91
2023-03-01T15:31:32.702Z,99918.44
2023-03-01T15:34:35.449Z,99919.25
2023-03-01T15:37:09.593Z,99912.06
2023-03-01T15:39:44.153Z,99918.84
2023-03-01T15:42:38.819Z,99925.38
2023-03-01T15:45:26.598Z,99924.31
2023-03-01T15:48:18.937Z,99919.88
2023-03-01T15:50:59.092Z,99926.09
2023-03-01T15:53:28.948Z,99924.41
2023-03-01T15:55:56.105Z,99933.91
2023-03-01T15:58:26.680Z,99930.00
2023-03-01T16:01:01.088Z,99938.91
2023-03-01T16:03:30.365Z,99934.53
2023-03-01T16:05:57.883Z,99938.91
2023-03-01T16:08:25.796Z,99948.09
2023-03-01T16:10:55.276Z,99952.94
2023-03-01T16:13:22.637Z,99954.91
2023-03-01T16:15:50.017Z,99950.81
2023-03-01T16:18:17.343Z,99952.13
2023-03-01T16:20:44.510Z,99960.81
2023-03-01T16:23:12.739Z,99966.13
2023-03-01T16:25:40.193Z,99959.47
2023-03-01T16:28:11.160Z,99965.53
2023-03-01T16:30:40.567Z,99975.28
2023-03-01T16:33:24.236Z,99977.56
2023-03-01T16:35:56.501Z,99981.78
2023-03-01T16:38:23.808Z,99983.47
2023-03-01T16:40:52.809Z,99988.38
2023-03-01T16:43:20.246Z,99991.97
2023-03-01T16:45:47.792Z,99991.16
2023-03-01T16:48:15.266Z,99993.56
2023-03-01T16:50:42.540Z,99995.56
2023-03-01T16:53:10.175Z,100005.56
2023-03-01T16:55:38.783Z,99996.28
2023-03-01T16:58:06.653Z,100005.47
2023-03-01T17:00:34.147Z,100023.66
2023-03-01T17:03:01.460Z,100025.53
2023-03-01T17:05:28.827Z,100035.88
2023-03-01T17:07:58.009Z,100039.19
2023-03-01T17:10:25.207Z,100052.66
2023-03-01T17:12:52.451Z,100062.63
2023-03-01T17:15:19.848Z,100066.25
2023-03-01T17:17:51.584Z,100069.19
2023-03-01T17:20:19.514Z,100072.13
2023-03-01T17:22:47.768Z,100082.41
2023-03-01T17:25:15.591Z,100081.72
2023-03-01T17:27:42.829Z,100082.09
2023-03-01T17:30:14.152Z,100091.78
2023-03-01T17:32:42.377Z,100087.03
2023-03-01T17:35:12.096Z,100095.94
2023-03-01T17:37:40.476Z,100105.50
2023-03-01T17:40:09.032Z,100109.53
2023-03-01T17:42:36.103Z,100111.69
2023-03-01T17:45:03.772Z,100120.66
2023-03-01T17:47:30.967Z,100128.16
2023-03-01T17:49:58.160Z,100138.16
2023-03-01T17:52:25.406Z,100146.63
2023-03-01T17:54:52.504Z,100145.59
2023-03-01T17:57:19.845Z,100149.97
2023-03-01T17:59:47.035Z,100158.41
2023-03-01T18:02:14.428Z,100160.31
2023-03-01T18:04:41.655Z,100164.13
2023-03-01T18:07:08.779Z,100166.69
2023-03-01T18:09:35.994Z,100166.97
2023-03-01T18:12:03.221Z,100164.13
2023-03-01T18:14:33.825Z,100167.72
2023-03-01T18:17:11.613Z,100167.72
2023-03-01T18:19:41.268Z,100169.13
2023-03-01T18:22:09.259Z,100172.38
2023-03-01T18:24:38.091Z,100173.69
2023-03-01T18:27:05.685Z,100175.88
2023-03-01T18:29:33.071Z,100179.22
2023-03-01T18:32:00.445Z,100180.25
2023-03-01T18:34:28.727Z,100181.44
2023-03-01T18:37:08.712Z,100180.09
2023-03-01T18:39:37.270Z,100183.06
2023-03-01T18:42:04.617Z,100178.22
2023-03-01T18:44:31.819Z,100175.09
2023-03-01T18:46:59.085Z,100175.09
2023-03-01T18:49:26.860Z,100175.31
2023-03-01T18:51:54.495Z,100184.13
2023-03-01T18:54:21.816Z,100182.31
2023-03-01T18:56:48.989Z,100180.25
2023-03-01T18:59:16.405Z,100183.19
2023-03-01T19:01:43.869Z,100172.88
2023-03-01T19:04:12.130Z,100171.09
2023-03-01T19:06:39.455Z,100181.69
2023-03-01T19:09:08.579Z,100184.78
2023-03-01T19:11:35.955Z,100189.16
2023-03-01T19:14:04.806Z,100189.81
2023-03-01T19:16:34.284Z,100193.16
2023-03-01T19:19:05.114Z,100203.66
2023-03-01T19:21:33.621Z,100198.09
2023-03-01T19:24:02.565Z,100208.81
2023-03-01T19:26:31.693Z,100209.31
2023-03-01T19:28:59.882Z,100207.75
2023-03-01T19:31:31.145Z,100207.88
2023-03-01T19:34:11.414Z,100221.88
2023-03-01T19:36:42.839Z,100226.13
2023-03-01T19:39:13.529Z,100221.63
2023-03-01T19:41:42.704Z,100228.22
2023-03-01T19:44:11.161Z,100224.66
2023-03-01T19:46:38.662Z,100230.00
2023-03-01T19:49:06.546Z,100228.66
2023-03-01T19:51:36.392Z,100235.03
2023-03-01T19:54:06.130Z,100236.31
2023-03-01T19:56:34.701Z,100235.84
2023-03-01T19:59:04.241Z,100235.84
2023-03-01T20:01:34.327Z,100239.34
2023-03-01T20:04:04.220Z,100244.63
2023-03-01T20:06:32.276Z,100235.66
2023-03-01T20:09:04.212Z,100240.72
2023-03-01T20:11:36.507Z,100242.94
2023-03-01T20:14:06.625Z,100248.22
2023-03-01T20:16:34.383Z,100244.34
2023-03-01T20:19:02.185Z,100242.81
2023-03-01T20:21:29.378Z,100245.00
2023-03-01T20:23:56.730Z,100253.41
2023-03-01T20:26:25.433Z,100253.53
2023-03-01T20:28:56.870Z,100242.06
2023-03-01T20:31:29.277Z,100256.31
2023-03-01T20:33:59.667Z,100261.47
2023-03-01T20:36:28.215Z,100271.94
2023-03-01T20:38:55.722Z,100274.41
2023-03-01T20:41:26.689Z,100285.78
2023-03-01T20:43:56.355Z,100291.75
2023-03-01T20:46:26.678Z,100296.41
2023-03-01T20:48:54.582Z,100290.84
2023-03-01T20:51:22.115Z,100296.28
2023-03-01T20:53:49.716Z,100291.47
2023-03-01T20:56:19.621Z,100289.53
2023-03-01T20:59:08.118Z,100293.78
2023-03-01T21:01:36.768Z,100294.06
2023-03-01T21:04:06.035Z,100294.56
2023-03-01T21:06:33.539Z,100289.78
2023-03-01T21:09:00.988Z,100298.59
2023-03-01T21:11:28.234Z,100301.84
2023-03-01T21:13:56.771Z,100296.41
2023-03-01T21:16:25.242Z,100292.38
2023-03-01T21:18:53.469Z,100288.38
2023-03-01T21:21:23.988Z,100291.34
2023-03-01T21:23:51.193Z,100281.91
2023-03-01T21:26:24.134Z,100289.16
2023-03-01T21:29:01.260Z,100288.78
2023-03-01T21:31:33.948Z,100296.53
2023-03-01T21:34:06.161Z,100288.53
2023-03-01T21:36:35.743Z,100286.06
2023-03-01T21:39:05.437Z,100289.66
2023-03-01T21:41:37.962Z,100298.88
2023-03-01T21:44:07.267Z,100293.03
2023-03-01T21:46:39.343Z,100286.06
2023-03-01T21:49:08.727Z,100291.75
2023-03-01T21:51:36.741Z,100279.72
2023-03-01T21:54:05.607Z,100281.25
2023-03-01T21:56:38.553Z,100292.66
2023-03-01T21:59:14.292Z,100287.19
2023-03-01T22:01:41.978Z,100289.66
2023-03-01T22:04:10.002Z,100291.75
2023-03-01T22:06:42.408Z,100284.34
2023-03-01T22:09:23.121Z,100283.06
2023-03-01T22:11:54.507Z,100283.34
2023-03-01T22:14:22.201Z,100281.41
2023-03-01T22:16:51.573Z,100280.59
2023-03-01T22:19:19.892Z,100282.94
2023-03-01T22:21:52.132Z,100279.59
2023-03-01T22:24:24.522Z,100287.09
2023-03-01T22:26:54.296Z,100285.03
2023-03-01T22:29:29.432Z,100284.22
2023-03-01T22:31:58.705Z,100273.78
2023-03-01T22:34:26.995Z,100270.00
2023-03-01T22:36:54.411Z,100274.66
2023-03-01T22:39:22.104Z,100277.25
2023-03-01T22:41:49.902Z,100273.25
2023-03-01T22:44:22.760Z,100284.50
2023-03-01T22:46:50.696Z,100286.94
2023-03-01T22:49:19.294Z,100282.44
2023-03-01T22:51:47.554Z,100283.22
2023-03-01T22:54:16.554Z,100283.84
2023-03-01T22:56:44.275Z,100284.75
2023-03-01T22:59:16.625Z,100289.28
2023-03-01T23:01:47.643Z,100289.53
2023-03-01T23:04:16.998Z,100299.50
2023-03-01T23:06:50.642Z,100289.81
2023-03-01T23:09:26.916Z,100278.19
2023-03-01T23:11:55.520Z,100278.69
2023-03-01T23:14:23.945Z,100280.38
2023-03-01T23:16:52.077Z,100285.81
2023-03-01T23:19:19.359Z,100293.69
2023-03-01T23:21:49.933Z,100279.84
2023-03-01T23:24:22.336Z,100282.03
2023-03-01T23:26:56.072Z,100279.06
2023-03-01T23:29:23.457Z,100277.13
2023-03-01T23:31:50.701Z,100276.72
2023-03-01T23:34:19.174Z,100271.31
2023-03-01T23:36:46.876Z,100278.06
2023-03-01T23:39:14.760Z,100278.06
2023-03-01T23:41:42.278Z,100279.44
2023-03-01T23:44:20.928Z,100269.22
2023-03-01T23:46:50.793Z,100273.38
2023-03-01T23:49:23.059Z,100269.50
2023-03-01T23:51:50.970Z,100263.03
2023-03-01T23:54:22.806Z,100268.34
2023-03-01T23:56:50.305Z,100271.69
2023-03-01T23:59:23.581Z,100263.03
